Tümü
Gatton Airpark Airport (Gatton Queensland) YGAS Hava Durumu
There is no TAF data available at YGAS. Showing TAF data for YTWB (21 mi B).
TWB Terminal Alanı Tahmini (YGAS için veri yok)
| Date | Time (AEST) | Flight Rules | Wind Dir. | Speed | Type | Height AGL (ft) | Visibility | Remarks | ||||||
|---|---|---|---|---|---|---|---|---|---|---|---|---|---|---|
| 05-Eyl | 17:00 | VFR | 310° | 12 kt | Clouds and Visibility are OK | >= 6 miles | ||||||||
| 05-Eyl | 16:00 | VFR | 310° | 12 kt | Clouds and Visibility are OK | >= 6 miles | ||||||||
| 05-Eyl | 15:00 | VFR | 310° | 12 kt | Clouds and Visibility are OK | >= 6 miles | ||||||||
| 05-Eyl | 14:00 | VFR | 310° | 12 kt | Clouds and Visibility are OK | >= 6 miles | ||||||||
| 05-Eyl | 13:00 | VFR | 310° | 12 kt | Clouds and Visibility are OK | >= 6 miles | ||||||||
| 05-Eyl | 12:00 | VFR | 310° | 12 kt | Clouds and Visibility are OK | >= 6 miles | ||||||||
| 05-Eyl | 11:00 | VFR | 310° | 12 kt | Clouds and Visibility are OK | >= 6 miles | ||||||||
| 05-Eyl | 10:00 | VFR | 310° | 12 kt | Clouds and Visibility are OK | >= 6 miles | ||||||||
| 05-Eyl | 09:00 | VFR | 310° | 12 kt | Clouds and Visibility are OK | >= 6 miles | ||||||||
| 05-Eyl | 08:00 | VFR | 220° | 7 kt | Clouds and Visibility are OK | >= 6 miles | ||||||||
| 05-Eyl | 07:00 | VFR | 220° | 7 kt | Clouds and Visibility are OK | >= 6 miles | ||||||||
| 05-Eyl | 06:00 | VFR | 220° | 7 kt | Clouds and Visibility are OK | >= 6 miles | ||||||||
There is no METAR data available at YGAS. Showing METAR data for YTWB (21 mi B).
Yakın zamandaki TWB METAR geçmişi (YGAS verisi yok)
| Date | Time (AEST) | Flight Rules | Wind Dir. | Speed | Type | Height AGL (ft) | Visibility | Temp (°C) | Temp (°F) | Dew Point (°C) | Dew Point (°F) | Rel. Humid. | Pressure | Density Altitude | Remarks |
|---|---|---|---|---|---|---|---|---|---|---|---|---|---|---|---|
| 05-Eyl | 04:00 | VFR | 210° | 6 kt | 10000 meters | 17° | 62° | 4° | 39° | 42% | 1022 mb | 2.542 ft | |||
| 05-Eyl | 03:00 | VFR | 210° | 6 kt | 10000 meters | 17° | 62° | 4° | 39° | 42% | 1022 mb | 2.542 ft | |||
| 05-Eyl | 02:00 | VFR | 200° | 7 kt | 10000 meters | 18° | 64° | 5° | 41° | 42% | 1023 mb | 2.632 ft | |||
| 05-Eyl | 01:00 | VFR | 210° | 6 kt | 10000 meters | 17° | 62° | 5° | 41° | 45% | 1023 mb | 2.512 ft | |||
| 05-Eyl | 00:00 | VFR | 220° | 5 kt | 10000 meters | 18° | 64° | 4° | 39° | 39% | 1023 mb | 2.632 ft | |||
| 04-Eyl | 23:00 | VFR | 230° | 7 kt | 10000 meters | 18° | 64° | 5° | 41° | 42% | 1023 mb | 2.632 ft | |||
| 04-Eyl | 22:00 | VFR | 220° | 6 kt | 10000 meters | 19° | 66° | 5° | 41° | 40% | 1023 mb | 2.752 ft | |||
| 04-Eyl | 21:00 | VFR | 230° | 7 kt | 10000 meters | 19° | 66° | 5° | 41° | 40% | 1023 mb | 2.752 ft | |||
| 04-Eyl | 20:00 | VFR | 250° | 6 kt | 10000 meters | 20° | 68° | 5° | 41° | 37% | 1023 mb | 2.872 ft | |||
| 04-Eyl | 19:00 | VFR | 250° | 7 kt | 10000 meters | 21° | 69° | 5° | 41° | 35% | 1022 mb | 3.022 ft | |||
| 04-Eyl | 18:00 | VFR | 250° | 12 kt | 10000 meters | 24° | 75° | 5° | 41° | 29% | 1022 mb | 3.382 ft | |||
| 04-Eyl | 17:00 | VFR | 230° | 13 kt | 10000 meters | 25° | 77° | 5° | 41° | 28% | 1021 mb | 3.531 ft | |||
| 04-Eyl | 16:00 | VFR | 250° | 12 kt | 10000 meters | 26° | 78° | 4° | 39° | 24% | 1021 mb | 3.651 ft | |||
| 04-Eyl | 15:00 | VFR | 270° | 14 kt | 10000 meters | 27° | 80° | 2° | 35° | 20% | 1021 mb | 3.771 ft | |||
| 04-Eyl | 14:00 | VFR | 270° | 11 kt | 10000 meters | 27° | 80° | 5° | 41° | 24% | 1021 mb | 3.771 ft | |||
| 04-Eyl | 13:00 | VFR | 310° | 10 kt | 10000 meters | 25° | 77° | 7° | 44° | 32% | 1022 mb | 3.502 ft | |||
| 04-Eyl | 12:00 | VFR | 300° | 12 kt | 10000 meters | 25° | 77° | 6° | 42° | 30% | 1023 mb | 3.472 ft | |||
| 04-Eyl | 11:00 | VFR | 240° | 10 kt | 10000 meters | 24° | 75° | 8° | 46° | 36% | 1024 mb | 3.322 ft | |||
| 04-Eyl | 10:00 | VFR | 260° | 7 kt | 10000 meters | 22° | 71° | 8° | 46° | 41% | 1024 mb | 3.082 ft | |||
| 04-Eyl | 09:00 | VFR | 320° | 5 kt | 10000 meters | 21° | 69° | 9° | 48° | 46% | 1025 mb | 2.933 ft | |||
| 04-Eyl | 08:00 | VFR | 330° | 5 kt | 10000 meters | 19° | 66° | 8° | 46° | 49% | 1025 mb | 2.693 ft | |||
| 04-Eyl | 07:00 | VFR | 350° | 6 kt | 10000 meters | 17° | 62° | 7° | 44° | 52% | 1024 mb | 2.482 ft | |||
| 04-Eyl | 06:00 | VFR | 320° | 4 kt | 10000 meters | 15° | 59° | 6° | 42° | 55% | 1023 mb | 2.272 ft | |||
| 04-Eyl | 05:00 | VFR | 340° | 6 kt | 10000 meters | 16° | 60° | 6° | 42° | 51% | 1022 mb | 2.422 ft |
Giriş
| Tarayıcınız desteklenmiyor. tarayıcınızı yükseltin |
